sensor_id;sensor_type;location;lat;lon;timestamp;temperature;humidity
41884;DHT22;27566;50.930;5.328;2023-09-12T00:02:07;22.10;77.30
41884;DHT22;27566;50.930;5.328;2023-09-12T00:04:35;22.10;77.30
41884;DHT22;27566;50.930;5.328;2023-09-12T00:07:01;22.10;77.30
41884;DHT22;27566;50.930;5.328;2023-09-12T00:09:27;22.10;77.60
41884;DHT22;27566;50.930;5.328;2023-09-12T00:11:53;22.00;77.70
41884;DHT22;27566;50.930;5.328;2023-09-12T00:14:20;22.10;77.80
41884;DHT22;27566;50.930;5.328;2023-09-12T00:16:46;22.10;77.70
41884;DHT22;27566;50.930;5.328;2023-09-12T00:19:12;22.10;77.50
41884;DHT22;27566;50.930;5.328;2023-09-12T00:21:38;22.10;77.50
41884;DHT22;27566;50.930;5.328;2023-09-12T00:24:04;22.10;77.40
41884;DHT22;27566;50.930;5.328;2023-09-12T00:26:31;22.00;77.30
41884;DHT22;27566;50.930;5.328;2023-09-12T00:28:57;22.10;77.60
41884;DHT22;27566;50.930;5.328;2023-09-12T00:31:22;22.10;77.60
41884;DHT22;27566;50.930;5.328;2023-09-12T00:33:48;22.10;77.40
41884;DHT22;27566;50.930;5.328;2023-09-12T00:36:14;22.00;77.30
41884;DHT22;27566;50.930;5.328;2023-09-12T00:38:40;22.00;77.50
41884;DHT22;27566;50.930;5.328;2023-09-12T00:41:06;22.00;77.60
41884;DHT22;27566;50.930;5.328;2023-09-12T00:43:32;22.00;77.80
41884;DHT22;27566;50.930;5.328;2023-09-12T00:45:58;22.00;78.10
41884;DHT22;27566;50.930;5.328;2023-09-12T00:48:24;22.10;78.20
41884;DHT22;27566;50.930;5.328;2023-09-12T00:50:51;22.20;78.10
41884;DHT22;27566;50.930;5.328;2023-09-12T00:53:19;22.20;77.80
41884;DHT22;27566;50.930;5.328;2023-09-12T00:55:50;22.30;77.60
41884;DHT22;27566;50.930;5.328;2023-09-12T00:58:17;22.30;77.50
41884;DHT22;27566;50.930;5.328;2023-09-12T01:00:44;22.40;77.20
41884;DHT22;27566;50.930;5.328;2023-09-12T01:03:09;22.50;76.90
41884;DHT22;27566;50.930;5.328;2023-09-12T01:05:36;22.60;76.60
41884;DHT22;27566;50.930;5.328;2023-09-12T01:08:02;22.60;76.30
41884;DHT22;27566;50.930;5.328;2023-09-12T01:10:28;22.60;76.10
41884;DHT22;27566;50.930;5.328;2023-09-12T01:12:54;22.60;76.00
41884;DHT22;27566;50.930;5.328;2023-09-12T01:15:20;22.70;76.00
41884;DHT22;27566;50.930;5.328;2023-09-12T01:17:46;22.70;75.80
41884;DHT22;27566;50.930;5.328;2023-09-12T01:20:16;22.60;75.80
41884;DHT22;27566;50.930;5.328;2023-09-12T01:28:30;22.50;76.20
41884;DHT22;27566;50.930;5.328;2023-09-12T01:31:01;22.50;76.30
41884;DHT22;27566;50.930;5.328;2023-09-12T01:33:28;22.40;76.20
41884;DHT22;27566;50.930;5.328;2023-09-12T01:35:54;22.40;76.40
41884;DHT22;27566;50.930;5.328;2023-09-12T01:38:21;22.40;76.60
41884;DHT22;27566;50.930;5.328;2023-09-12T01:40:52;22.30;76.70
41884;DHT22;27566;50.930;5.328;2023-09-12T01:43:21;22.30;76.90
41884;DHT22;27566;50.930;5.328;2023-09-12T01:45:53;22.30;76.90
41884;DHT22;27566;50.930;5.328;2023-09-12T01:48:23;22.30;77.00
41884;DHT22;27566;50.930;5.328;2023-09-12T01:50:50;22.30;77.20
41884;DHT22;27566;50.930;5.328;2023-09-12T01:53:19;22.30;77.20
41884;DHT22;27566;50.930;5.328;2023-09-12T01:55:46;22.30;77.30
41884;DHT22;27566;50.930;5.328;2023-09-12T01:58:13;22.30;77.30
41884;DHT22;27566;50.930;5.328;2023-09-12T02:00:40;22.30;77.20
41884;DHT22;27566;50.930;5.328;2023-09-12T02:03:06;22.40;77.20
41884;DHT22;27566;50.930;5.328;2023-09-12T02:05:32;22.30;77.10
41884;DHT22;27566;50.930;5.328;2023-09-12T02:07:58;22.30;77.20
41884;DHT22;27566;50.930;5.328;2023-09-12T02:10:27;22.20;77.30
41884;DHT22;27566;50.930;5.328;2023-09-12T02:12:53;22.10;77.60
41884;DHT22;27566;50.930;5.328;2023-09-12T02:15:19;22.00;78.00
41884;DHT22;27566;50.930;5.328;2023-09-12T02:17:45;21.90;78.30
41884;DHT22;27566;50.930;5.328;2023-09-12T02:20:11;21.90;78.60
41884;DHT22;27566;50.930;5.328;2023-09-12T02:22:37;21.90;78.60
41884;DHT22;27566;50.930;5.328;2023-09-12T02:25:05;22.00;78.60
41884;DHT22;27566;50.930;5.328;2023-09-12T02:27:31;22.00;78.40
41884;DHT22;27566;50.930;5.328;2023-09-12T02:29:57;22.00;78.20
41884;DHT22;27566;50.930;5.328;2023-09-12T02:32:23;22.00;78.00
41884;DHT22;27566;50.930;5.328;2023-09-12T02:34:49;22.00;77.80
41884;DHT22;27566;50.930;5.328;2023-09-12T02:37:15;21.90;77.90
41884;DHT22;27566;50.930;5.328;2023-09-12T02:39:42;21.80;78.30
41884;DHT22;27566;50.930;5.328;2023-09-12T02:42:07;21.80;78.90
41884;DHT22;27566;50.930;5.328;2023-09-12T02:44:33;21.70;79.30
41884;DHT22;27566;50.930;5.328;2023-09-12T02:47:00;21.70;80.50
41884;DHT22;27566;50.930;5.328;2023-09-12T02:49:26;21.60;79.90
41884;DHT22;27566;50.930;5.328;2023-09-12T02:51:52;21.60;80.10
41884;DHT22;27566;50.930;5.328;2023-09-12T02:54:17;21.60;80.40
41884;DHT22;27566;50.930;5.328;2023-09-12T02:56:43;21.60;80.50
41884;DHT22;27566;50.930;5.328;2023-09-12T02:59:09;21.50;80.50
41884;DHT22;27566;50.930;5.328;2023-09-12T03:01:35;21.50;80.80
41884;DHT22;27566;50.930;5.328;2023-09-12T03:04:01;21.40;81.00
41884;DHT22;27566;50.930;5.328;2023-09-12T03:06:28;21.40;81.30
41884;DHT22;27566;50.930;5.328;2023-09-12T03:08:54;21.40;81.50
41884;DHT22;27566;50.930;5.328;2023-09-12T03:11:20;21.40;81.50
41884;DHT22;27566;50.930;5.328;2023-09-12T03:13:46;21.50;81.60
41884;DHT22;27566;50.930;5.328;2023-09-12T03:16:13;21.50;81.70
41884;DHT22;27566;50.930;5.328;2023-09-12T03:18:39;21.60;81.80
41884;DHT22;27566;50.930;5.328;2023-09-12T03:21:05;21.60;81.90
41884;DHT22;27566;50.930;5.328;2023-09-12T03:23:32;21.60;82.00
41884;DHT22;27566;50.930;5.328;2023-09-12T03:26:03;21.60;82.10
41884;DHT22;27566;50.930;5.328;2023-09-12T03:28:29;21.60;82.20
41884;DHT22;27566;50.930;5.328;2023-09-12T03:31:07;21.50;82.30
41884;DHT22;27566;50.930;5.328;2023-09-12T03:33:33;21.50;82.70
41884;DHT22;27566;50.930;5.328;2023-09-12T03:35:59;21.50;82.80
41884;DHT22;27566;50.930;5.328;2023-09-12T03:38:25;21.40;82.80
41884;DHT22;27566;50.930;5.328;2023-09-12T03:40:51;21.40;83.00
41884;DHT22;27566;50.930;5.328;2023-09-12T03:43:17;21.50;83.00
41884;DHT22;27566;50.930;5.328;2023-09-12T03:45:43;21.50;82.80
41884;DHT22;27566;50.930;5.328;2023-09-12T03:48:08;21.50;82.60
41884;DHT22;27566;50.930;5.328;2023-09-12T03:50:34;21.50;82.50
41884;DHT22;27566;50.930;5.328;2023-09-12T03:53:00;21.50;82.50
41884;DHT22;27566;50.930;5.328;2023-09-12T03:55:27;21.60;82.60
41884;DHT22;27566;50.930;5.328;2023-09-12T03:57:53;21.60;82.50
41884;DHT22;27566;50.930;5.328;2023-09-12T04:00:19;21.60;82.50
41884;DHT22;27566;50.930;5.328;2023-09-12T04:02:45;21.60;82.40
41884;DHT22;27566;50.930;5.328;2023-09-12T04:05:11;21.70;82.50
41884;DHT22;27566;50.930;5.328;2023-09-12T04:07:36;21.70;82.30
41884;DHT22;27566;50.930;5.328;2023-09-12T04:10:03;21.80;82.20
41884;DHT22;27566;50.930;5.328;2023-09-12T04:12:29;21.80;82.00
41884;DHT22;27566;50.930;5.328;2023-09-12T04:14:55;21.80;81.90
41884;DHT22;27566;50.930;5.328;2023-09-12T04:17:20;21.90;81.60
41884;DHT22;27566;50.930;5.328;2023-09-12T04:19:46;21.90;81.40
41884;DHT22;27566;50.930;5.328;2023-09-12T04:22:14;21.90;81.20
41884;DHT22;27566;50.930;5.328;2023-09-12T04:24:40;21.80;81.10
41884;DHT22;27566;50.930;5.328;2023-09-12T04:27:06;21.80;81.10
41884;DHT22;27566;50.930;5.328;2023-09-12T04:29:35;21.80;81.10
41884;DHT22;27566;50.930;5.328;2023-09-12T04:32:04;21.80;80.90
41884;DHT22;27566;50.930;5.328;2023-09-12T04:34:30;21.80;80.90
41884;DHT22;27566;50.930;5.328;2023-09-12T04:36:56;21.70;80.80
41884;DHT22;27566;50.930;5.328;2023-09-12T04:39:22;21.70;80.80
41884;DHT22;27566;50.930;5.328;2023-09-12T04:41:48;21.60;80.80
41884;DHT22;27566;50.930;5.328;2023-09-12T04:44:14;21.50;81.10
41884;DHT22;27566;50.930;5.328;2023-09-12T04:46:40;21.50;81.30
41884;DHT22;27566;50.930;5.328;2023-09-12T04:49:06;21.50;81.40
41884;DHT22;27566;50.930;5.328;2023-09-12T04:51:32;21.40;81.40
41884;DHT22;27566;50.930;5.328;2023-09-12T04:53:57;21.40;81.50
41884;DHT22;27566;50.930;5.328;2023-09-12T04:56:23;21.40;81.60
41884;DHT22;27566;50.930;5.328;2023-09-12T04:58:52;21.40;81.70
41884;DHT22;27566;50.930;5.328;2023-09-12T05:01:18;21.40;82.40
41884;DHT22;27566;50.930;5.328;2023-09-12T05:03:44;21.30;81.60
41884;DHT22;27566;50.930;5.328;2023-09-12T05:06:10;21.30;81.60
41884;DHT22;27566;50.930;5.328;2023-09-12T05:08:36;21.30;81.20
41884;DHT22;27566;50.930;5.328;2023-09-12T05:11:02;21.30;81.80
41884;DHT22;27566;50.930;5.328;2023-09-12T05:13:29;21.30;81.90
41884;DHT22;27566;50.930;5.328;2023-09-12T05:15:55;21.30;82.00
41884;DHT22;27566;50.930;5.328;2023-09-12T05:18:22;21.30;82.10
41884;DHT22;27566;50.930;5.328;2023-09-12T05:20:48;21.40;82.00
41884;DHT22;27566;50.930;5.328;2023-09-12T05:23:14;21.40;81.80
41884;DHT22;27566;50.930;5.328;2023-09-12T05:25:40;21.40;81.80
41884;DHT22;27566;50.930;5.328;2023-09-12T05:28:05;21.50;81.60
41884;DHT22;27566;50.930;5.328;2023-09-12T05:30:31;21.50;81.40
41884;DHT22;27566;50.930;5.328;2023-09-12T05:32:57;21.60;81.20
41884;DHT22;27566;50.930;5.328;2023-09-12T05:35:23;21.60;80.90
41884;DHT22;27566;50.930;5.328;2023-09-12T05:37:49;21.60;80.60
41884;DHT22;27566;50.930;5.328;2023-09-12T05:40:15;21.70;80.50
41884;DHT22;27566;50.930;5.328;2023-09-12T05:42:41;21.70;80.30
41884;DHT22;27566;50.930;5.328;2023-09-12T05:45:07;21.80;80.00
41884;DHT22;27566;50.930;5.328;2023-09-12T05:47:32;21.90;79.90
41884;DHT22;27566;50.930;5.328;2023-09-12T05:49:58;21.90;79.80
41884;DHT22;27566;50.930;5.328;2023-09-12T05:52:30;21.90;79.70
41884;DHT22;27566;50.930;5.328;2023-09-12T05:54:59;21.90;79.50
41884;DHT22;27566;50.930;5.328;2023-09-12T05:57:27;21.90;80.20
41884;DHT22;27566;50.930;5.328;2023-09-12T05:59:53;21.90;79.40
41884;DHT22;27566;50.930;5.328;2023-09-12T06:02:19;22.00;79.60
41884;DHT22;27566;50.930;5.328;2023-09-12T06:04:45;22.00;79.50
41884;DHT22;27566;50.930;5.328;2023-09-12T06:07:11;22.00;79.40
41884;DHT22;27566;50.930;5.328;2023-09-12T06:09:37;22.00;79.40
41884;DHT22;27566;50.930;5.328;2023-09-12T06:12:04;22.00;79.20
41884;DHT22;27566;50.930;5.328;2023-09-12T06:14:30;22.20;79.20
41884;DHT22;27566;50.930;5.328;2023-09-12T06:16:56;22.20;78.90
41884;DHT22;27566;50.930;5.328;2023-09-12T06:19:22;22.30;78.50
41884;DHT22;27566;50.930;5.328;2023-09-12T06:21:48;22.40;78.30
41884;DHT22;27566;50.930;5.328;2023-09-12T06:24:16;22.40;78.00
41884;DHT22;27566;50.930;5.328;2023-09-12T06:26:43;22.40;77.80
41884;DHT22;27566;50.930;5.328;2023-09-12T06:29:09;22.40;77.60
41884;DHT22;27566;50.930;5.328;2023-09-12T06:31:35;22.40;77.60
41884;DHT22;27566;50.930;5.328;2023-09-12T06:34:01;22.40;77.90
41884;DHT22;27566;50.930;5.328;2023-09-12T06:36:28;22.30;78.10
41884;DHT22;27566;50.930;5.328;2023-09-12T06:38:57;22.30;78.40
41884;DHT22;27566;50.930;5.328;2023-09-12T06:41:24;22.30;78.60
41884;DHT22;27566;50.930;5.328;2023-09-12T06:43:50;22.30;78.60
41884;DHT22;27566;50.930;5.328;2023-09-12T06:46:16;22.40;78.50
41884;DHT22;27566;50.930;5.328;2023-09-12T06:48:45;22.40;78.30
41884;DHT22;27566;50.930;5.328;2023-09-12T06:51:12;22.50;78.20
41884;DHT22;27566;50.930;5.328;2023-09-12T06:53:38;22.50;78.00
41884;DHT22;27566;50.930;5.328;2023-09-12T06:56:05;22.60;78.00
41884;DHT22;27566;50.930;5.328;2023-09-12T06:58:31;22.60;77.60
41884;DHT22;27566;50.930;5.328;2023-09-12T07:01:07;22.70;77.50
41884;DHT22;27566;50.930;5.328;2023-09-12T07:03:34;22.60;77.30
41884;DHT22;27566;50.930;5.328;2023-09-12T07:06:00;22.70;77.10
41884;DHT22;27566;50.930;5.328;2023-09-12T07:08:26;22.70;76.60
41884;DHT22;27566;50.930;5.328;2023-09-12T07:10:52;22.70;76.60
41884;DHT22;27566;50.930;5.328;2023-09-12T07:13:21;22.70;76.10
41884;DHT22;27566;50.930;5.328;2023-09-12T07:15:47;22.80;76.40
41884;DHT22;27566;50.930;5.328;2023-09-12T07:18:13;22.90;75.50
41884;DHT22;27566;50.930;5.328;2023-09-12T07:20:40;22.90;75.30
41884;DHT22;27566;50.930;5.328;2023-09-12T07:23:07;23.00;74.90
41884;DHT22;27566;50.930;5.328;2023-09-12T07:25:51;23.10;74.40
41884;DHT22;27566;50.930;5.328;2023-09-12T07:28:18;23.20;74.00
41884;DHT22;27566;50.930;5.328;2023-09-12T07:30:48;23.30;73.60
41884;DHT22;27566;50.930;5.328;2023-09-12T07:33:14;23.40;73.30
41884;DHT22;27566;50.930;5.328;2023-09-12T07:35:39;23.50;73.20
41884;DHT22;27566;50.930;5.328;2023-09-12T07:38:05;23.50;72.80
41884;DHT22;27566;50.930;5.328;2023-09-12T07:40:31;23.60;72.80
41884;DHT22;27566;50.930;5.328;2023-09-12T07:42:57;23.70;72.60
41884;DHT22;27566;50.930;5.328;2023-09-12T07:45:23;23.90;72.50
41884;DHT22;27566;50.930;5.328;2023-09-12T07:47:49;24.00;71.70
41884;DHT22;27566;50.930;5.328;2023-09-12T07:50:15;24.10;71.40
41884;DHT22;27566;50.930;5.328;2023-09-12T07:52:41;24.20;71.00
41884;DHT22;27566;50.930;5.328;2023-09-12T07:55:08;24.30;70.60
41884;DHT22;27566;50.930;5.328;2023-09-12T07:57:34;24.30;70.10
41884;DHT22;27566;50.930;5.328;2023-09-12T08:00:01;24.30;69.80
41884;DHT22;27566;50.930;5.328;2023-09-12T08:02:30;24.30;69.50
41884;DHT22;27566;50.930;5.328;2023-09-12T08:04:55;24.30;69.30
41884;DHT22;27566;50.930;5.328;2023-09-12T08:07:21;24.20;69.40
41884;DHT22;27566;50.930;5.328;2023-09-12T08:09:49;24.20;69.60
41884;DHT22;27566;50.930;5.328;2023-09-12T08:12:16;24.20;69.40
41884;DHT22;27566;50.930;5.328;2023-09-12T08:14:42;24.30;69.50
41884;DHT22;27566;50.930;5.328;2023-09-12T08:17:09;24.50;69.60
41884;DHT22;27566;50.930;5.328;2023-09-12T08:19:35;24.90;68.90
41884;DHT22;27566;50.930;5.328;2023-09-12T08:22:01;25.20;67.80
41884;DHT22;27566;50.930;5.328;2023-09-12T08:24:26;25.50;66.70
41884;DHT22;27566;50.930;5.328;2023-09-12T08:26:52;25.80;65.20
41884;DHT22;27566;50.930;5.328;2023-09-12T08:29:18;25.90;64.70
41884;DHT22;27566;50.930;5.328;2023-09-12T08:31:44;26.00;63.60
41884;DHT22;27566;50.930;5.328;2023-09-12T08:34:12;26.10;62.70
41884;DHT22;27566;50.930;5.328;2023-09-12T08:36:39;26.20;62.80
41884;DHT22;27566;50.930;5.328;2023-09-12T08:39:05;26.30;62.40
41884;DHT22;27566;50.930;5.328;2023-09-12T08:41:34;26.40;62.00
41884;DHT22;27566;50.930;5.328;2023-09-12T08:44:01;26.60;61.40
41884;DHT22;27566;50.930;5.328;2023-09-12T08:46:27;26.70;61.70
41884;DHT22;27566;50.930;5.328;2023-09-12T08:48:55;26.90;60.80
41884;DHT22;27566;50.930;5.328;2023-09-12T08:51:23;27.10;60.00
41884;DHT22;27566;50.930;5.328;2023-09-12T08:53:52;27.50;59.20
41884;DHT22;27566;50.930;5.328;2023-09-12T08:56:19;27.80;57.90
41884;DHT22;27566;50.930;5.328;2023-09-12T08:58:45;28.00;56.90
41884;DHT22;27566;50.930;5.328;2023-09-12T09:01:13;28.10;56.50
41884;DHT22;27566;50.930;5.328;2023-09-12T09:03:42;28.10;56.40
41884;DHT22;27566;50.930;5.328;2023-09-12T09:06:11;27.90;56.50
41884;DHT22;27566;50.930;5.328;2023-09-12T09:08:38;27.80;56.80
41884;DHT22;27566;50.930;5.328;2023-09-12T09:11:04;27.70;56.80
41884;DHT22;27566;50.930;5.328;2023-09-12T09:13:34;27.60;57.10
41884;DHT22;27566;50.930;5.328;2023-09-12T09:16:11;27.50;57.60
41884;DHT22;27566;50.930;5.328;2023-09-12T09:21:20;27.60;58.10
41884;DHT22;27566;50.930;5.328;2023-09-12T09:23:46;27.70;57.20
41884;DHT22;27566;50.930;5.328;2023-09-12T09:26:13;27.80;56.70
41884;DHT22;27566;50.930;5.328;2023-09-12T09:28:38;27.90;56.60
41884;DHT22;27566;50.930;5.328;2023-09-12T09:31:06;28.00;55.90
41884;DHT22;27566;50.930;5.328;2023-09-12T09:33:36;28.00;55.90
41884;DHT22;27566;50.930;5.328;2023-09-12T09:36:04;28.00;55.90
41884;DHT22;27566;50.930;5.328;2023-09-12T09:38:34;28.30;55.70
41884;DHT22;27566;50.930;5.328;2023-09-12T09:41:04;28.50;55.20
41884;DHT22;27566;50.930;5.328;2023-09-12T09:43:31;28.50;55.00
41884;DHT22;27566;50.930;5.328;2023-09-12T09:46:00;28.80;54.80
41884;DHT22;27566;50.930;5.328;2023-09-12T09:48:26;29.00;54.40
41884;DHT22;27566;50.930;5.328;2023-09-12T09:50:53;29.30;53.80
41884;DHT22;27566;50.930;5.328;2023-09-12T09:53:36;29.50;52.90
41884;DHT22;27566;50.930;5.328;2023-09-12T09:56:08;29.40;53.10
41884;DHT22;27566;50.930;5.328;2023-09-12T09:58:54;29.40;52.60
41884;DHT22;27566;50.930;5.328;2023-09-12T10:01:29;29.20;53.50
41884;DHT22;27566;50.930;5.328;2023-09-12T10:04:00;29.00;53.60
41884;DHT22;27566;50.930;5.328;2023-09-12T10:06:27;28.70;53.60
41884;DHT22;27566;50.930;5.328;2023-09-12T10:08:54;28.40;53.70
41884;DHT22;27566;50.930;5.328;2023-09-12T10:11:26;28.20;54.60
41884;DHT22;27566;50.930;5.328;2023-09-12T10:13:55;28.00;54.90
41884;DHT22;27566;50.930;5.328;2023-09-12T10:16:34;27.90;54.90
41884;DHT22;27566;50.930;5.328;2023-09-12T10:19:19;27.70;54.80
41884;DHT22;27566;50.930;5.328;2023-09-12T10:24:21;27.50;55.90
41884;DHT22;27566;50.930;5.328;2023-09-12T10:26:50;27.50;56.10
41884;DHT22;27566;50.930;5.328;2023-09-12T10:29:16;27.50;56.20
41884;DHT22;27566;50.930;5.328;2023-09-12T10:31:42;27.60;56.40
41884;DHT22;27566;50.930;5.328;2023-09-12T10:34:10;27.60;56.30
41884;DHT22;27566;50.930;5.328;2023-09-12T10:36:40;27.60;55.90
41884;DHT22;27566;50.930;5.328;2023-09-12T10:39:08;27.60;54.70
41884;DHT22;27566;50.930;5.328;2023-09-12T10:41:39;27.50;54.60
41884;DHT22;27566;50.930;5.328;2023-09-12T10:44:17;27.40;54.70
41884;DHT22;27566;50.930;5.328;2023-09-12T10:46:45;27.30;54.80
41884;DHT22;27566;50.930;5.328;2023-09-12T10:49:13;27.20;54.80
41884;DHT22;27566;50.930;5.328;2023-09-12T10:51:44;27.10;54.90
41884;DHT22;27566;50.930;5.328;2023-09-12T10:54:24;27.10;54.30
41884;DHT22;27566;50.930;5.328;2023-09-12T10:57:10;27.00;54.50
41884;DHT22;27566;50.930;5.328;2023-09-12T11:02:33;26.90;55.80
41884;DHT22;27566;50.930;5.328;2023-09-12T11:05:02;26.90;56.00
41884;DHT22;27566;50.930;5.328;2023-09-12T11:12:42;26.90;56.20
41884;DHT22;27566;50.930;5.328;2023-09-12T11:15:09;27.00;56.10
41884;DHT22;27566;50.930;5.328;2023-09-12T11:17:46;27.10;55.70
41884;DHT22;27566;50.930;5.328;2023-09-12T11:20:14;27.10;55.20
41884;DHT22;27566;50.930;5.328;2023-09-12T11:22:44;27.20;55.70
41884;DHT22;27566;50.930;5.328;2023-09-12T11:25:24;27.30;55.40
41884;DHT22;27566;50.930;5.328;2023-09-12T11:32:47;27.80;53.70
41884;DHT22;27566;50.930;5.328;2023-09-12T11:35:14;28.00;53.50
41884;DHT22;27566;50.930;5.328;2023-09-12T11:37:49;28.20;53.80
41884;DHT22;27566;50.930;5.328;2023-09-12T11:42:42;28.70;52.30
41884;DHT22;27566;50.930;5.328;2023-09-12T11:45:11;28.90;51.50
41884;DHT22;27566;50.930;5.328;2023-09-12T11:47:41;29.00;51.30
41884;DHT22;27566;50.930;5.328;2023-09-12T11:50:08;29.20;51.20
41884;DHT22;27566;50.930;5.328;2023-09-12T11:52:37;29.40;51.00
41884;DHT22;27566;50.930;5.328;2023-09-12T11:55:04;29.50;50.90
41884;DHT22;27566;50.930;5.328;2023-09-12T11:57:30;29.60;50.40
41884;DHT22;27566;50.930;5.328;2023-09-12T11:59:57;29.80;49.90
41884;DHT22;27566;50.930;5.328;2023-09-12T12:02:23;29.90;49.30
41884;DHT22;27566;50.930;5.328;2023-09-12T12:04:50;30.00;49.00
41884;DHT22;27566;50.930;5.328;2023-09-12T12:07:16;29.90;49.00
41884;DHT22;27566;50.930;5.328;2023-09-12T12:09:42;29.90;48.60
41884;DHT22;27566;50.930;5.328;2023-09-12T12:12:12;29.90;48.40
41884;DHT22;27566;50.930;5.328;2023-09-12T12:14:40;29.70;48.80
41884;DHT22;27566;50.930;5.328;2023-09-12T12:17:10;29.60;49.00
41884;DHT22;27566;50.930;5.328;2023-09-12T12:19:37;29.50;49.40
41884;DHT22;27566;50.930;5.328;2023-09-12T12:22:04;29.40;49.60
41884;DHT22;27566;50.930;5.328;2023-09-12T12:24:49;29.30;49.70
41884;DHT22;27566;50.930;5.328;2023-09-12T12:27:16;29.20;49.60
41884;DHT22;27566;50.930;5.328;2023-09-12T12:29:42;29.10;49.90
41884;DHT22;27566;50.930;5.328;2023-09-12T12:32:10;29.10;50.00
41884;DHT22;27566;50.930;5.328;2023-09-12T12:34:36;29.20;49.90
41884;DHT22;27566;50.930;5.328;2023-09-12T12:37:03;29.30;49.40
41884;DHT22;27566;50.930;5.328;2023-09-12T12:39:29;29.60;48.90
41884;DHT22;27566;50.930;5.328;2023-09-12T12:41:55;29.80;48.70
41884;DHT22;27566;50.930;5.328;2023-09-12T12:44:21;29.90;48.40
41884;DHT22;27566;50.930;5.328;2023-09-12T12:46:52;30.10;48.00
41884;DHT22;27566;50.930;5.328;2023-09-12T12:49:19;30.10;47.90
41884;DHT22;27566;50.930;5.328;2023-09-12T12:51:46;30.10;48.00
41884;DHT22;27566;50.930;5.328;2023-09-12T12:54:13;30.00;47.60
41884;DHT22;27566;50.930;5.328;2023-09-12T12:56:39;29.90;47.70
41884;DHT22;27566;50.930;5.328;2023-09-12T12:59:07;29.80;48.20
41884;DHT22;27566;50.930;5.328;2023-09-12T13:01:38;29.70;48.40
41884;DHT22;27566;50.930;5.328;2023-09-12T13:04:05;29.40;48.70
41884;DHT22;27566;50.930;5.328;2023-09-12T13:06:32;29.40;48.60
41884;DHT22;27566;50.930;5.328;2023-09-12T13:09:02;29.30;49.20
41884;DHT22;27566;50.930;5.328;2023-09-12T13:11:30;29.20;48.90
41884;DHT22;27566;50.930;5.328;2023-09-12T13:13:57;29.10;49.00
41884;DHT22;27566;50.930;5.328;2023-09-12T13:16:23;28.90;49.10
41884;DHT22;27566;50.930;5.328;2023-09-12T13:18:51;28.80;49.20
41884;DHT22;27566;50.930;5.328;2023-09-12T13:21:17;28.80;49.10
41884;DHT22;27566;50.930;5.328;2023-09-12T13:23:43;28.80;49.40
41884;DHT22;27566;50.930;5.328;2023-09-12T13:26:09;28.80;49.00
41884;DHT22;27566;50.930;5.328;2023-09-12T13:28:36;28.70;49.10
41884;DHT22;27566;50.930;5.328;2023-09-12T13:31:03;28.80;49.10
41884;DHT22;27566;50.930;5.328;2023-09-12T13:33:29;29.00;48.80
41884;DHT22;27566;50.930;5.328;2023-09-12T13:35:55;29.30;48.60
41884;DHT22;27566;50.930;5.328;2023-09-12T13:38:21;29.60;48.00
41884;DHT22;27566;50.930;5.328;2023-09-12T13:40:49;29.90;47.30
41884;DHT22;27566;50.930;5.328;2023-09-12T13:43:14;29.90;46.90
41884;DHT22;27566;50.930;5.328;2023-09-12T13:45:40;30.00;47.00
41884;DHT22;27566;50.930;5.328;2023-09-12T13:48:07;30.00;46.80
41884;DHT22;27566;50.930;5.328;2023-09-12T13:50:33;30.10;46.80
41884;DHT22;27566;50.930;5.328;2023-09-12T13:53:01;30.30;46.70
41884;DHT22;27566;50.930;5.328;2023-09-12T13:55:33;30.40;46.40
41884;DHT22;27566;50.930;5.328;2023-09-12T13:58:03;30.60;46.20
41884;DHT22;27566;50.930;5.328;2023-09-12T14:00:30;30.70;46.10
41884;DHT22;27566;50.930;5.328;2023-09-12T14:02:56;30.80;45.00
41884;DHT22;27566;50.930;5.328;2023-09-12T14:05:26;30.90;45.00
41884;DHT22;27566;50.930;5.328;2023-09-12T14:07:52;30.90;44.60
41884;DHT22;27566;50.930;5.328;2023-09-12T14:10:18;31.00;44.30
41884;DHT22;27566;50.930;5.328;2023-09-12T14:12:44;31.00;44.30
41884;DHT22;27566;50.930;5.328;2023-09-12T14:15:11;30.80;43.70
41884;DHT22;27566;50.930;5.328;2023-09-12T14:17:37;30.70;44.20
41884;DHT22;27566;50.930;5.328;2023-09-12T14:20:04;30.50;44.60
41884;DHT22;27566;50.930;5.328;2023-09-12T14:22:30;30.40;44.20
41884;DHT22;27566;50.930;5.328;2023-09-12T14:24:56;30.30;44.00
41884;DHT22;27566;50.930;5.328;2023-09-12T14:27:22;30.20;44.20
41884;DHT22;27566;50.930;5.328;2023-09-12T14:29:47;30.20;44.90
41884;DHT22;27566;50.930;5.328;2023-09-12T14:32:15;30.30;44.80
41884;DHT22;27566;50.930;5.328;2023-09-12T14:34:41;30.20;45.30
41884;DHT22;27566;50.930;5.328;2023-09-12T14:37:06;30.20;45.60
41884;DHT22;27566;50.930;5.328;2023-09-12T14:39:33;30.20;46.60
41884;DHT22;27566;50.930;5.328;2023-09-12T14:41:59;30.20;47.00
41884;DHT22;27566;50.930;5.328;2023-09-12T14:44:27;30.30;47.20
41884;DHT22;27566;50.930;5.328;2023-09-12T14:46:54;30.30;47.20
41884;DHT22;27566;50.930;5.328;2023-09-12T14:49:20;30.40;47.30
41884;DHT22;27566;50.930;5.328;2023-09-12T14:51:46;30.60;46.90
41884;DHT22;27566;50.930;5.328;2023-09-12T14:54:12;30.70;46.60
41884;DHT22;27566;50.930;5.328;2023-09-12T14:56:38;30.60;46.50
41884;DHT22;27566;50.930;5.328;2023-09-12T14:59:05;30.40;46.90
41884;DHT22;27566;50.930;5.328;2023-09-12T15:01:32;30.30;47.30
41884;DHT22;27566;50.930;5.328;2023-09-12T15:04:00;30.20;47.50
41884;DHT22;27566;50.930;5.328;2023-09-12T15:06:26;30.20;47.60
41884;DHT22;27566;50.930;5.328;2023-09-12T15:08:53;30.30;47.60
41884;DHT22;27566;50.930;5.328;2023-09-12T15:11:19;30.30;47.80
41884;DHT22;27566;50.930;5.328;2023-09-12T15:13:45;30.30;48.00
41884;DHT22;27566;50.930;5.328;2023-09-12T15:16:11;30.20;48.10
41884;DHT22;27566;50.930;5.328;2023-09-12T15:18:37;30.00;48.30
41884;DHT22;27566;50.930;5.328;2023-09-12T15:21:05;29.80;48.70
41884;DHT22;27566;50.930;5.328;2023-09-12T15:23:31;29.60;49.40
41884;DHT22;27566;50.930;5.328;2023-09-12T15:25:57;29.50;49.90
41884;DHT22;27566;50.930;5.328;2023-09-12T15:28:23;29.40;50.40
41884;DHT22;27566;50.930;5.328;2023-09-12T15:30:49;29.30;50.70
41884;DHT22;27566;50.930;5.328;2023-09-12T15:33:15;29.40;50.90
41884;DHT22;27566;50.930;5.328;2023-09-12T15:35:40;29.40;50.80
41884;DHT22;27566;50.930;5.328;2023-09-12T15:38:06;29.30;51.00
41884;DHT22;27566;50.930;5.328;2023-09-12T15:40:32;29.30;51.10
41884;DHT22;27566;50.930;5.328;2023-09-12T15:42:59;29.30;51.30
41884;DHT22;27566;50.930;5.328;2023-09-12T15:45:25;29.20;51.30
41884;DHT22;27566;50.930;5.328;2023-09-12T15:47:51;29.20;51.70
41884;DHT22;27566;50.930;5.328;2023-09-12T15:50:17;29.00;51.70
41884;DHT22;27566;50.930;5.328;2023-09-12T15:52:43;28.90;52.20
41884;DHT22;27566;50.930;5.328;2023-09-12T15:55:10;28.80;52.60
41884;DHT22;27566;50.930;5.328;2023-09-12T15:57:38;28.60;51.90